createdAt,value
2016-10-06T00:00:18.429Z,1016.39
2016-10-06T00:01:19.218Z,1016.36
2016-10-06T00:02:18.308Z,1016.31
2016-10-06T00:03:18.761Z,1016.31
2016-10-06T00:04:18.406Z,1016.36
2016-10-06T00:05:18.426Z,1016.4
2016-10-06T00:06:18.968Z,1016.41
2016-10-06T00:07:18.320Z,1016.34
2016-10-06T00:08:18.370Z,1016.46
2016-10-06T00:09:18.442Z,1016.44
2016-10-06T00:10:18.775Z,1016.43
2016-10-06T00:11:18.332Z,1016.43
2016-10-06T00:12:18.354Z,1016.41
2016-10-06T00:13:18.640Z,1016.45
2016-10-06T00:14:18.531Z,1016.41
2016-10-06T00:15:18.830Z,1016.4
2016-10-06T00:16:18.746Z,1016.37
2016-10-06T00:17:18.597Z,1016.42
2016-10-06T00:18:18.622Z,1016.41
2016-10-06T00:19:18.409Z,1016.35
2016-10-06T00:20:18.523Z,1016.33
2016-10-06T00:21:18.740Z,1016.31
2016-10-06T00:22:18.661Z,1016.29
2016-10-06T00:23:19.392Z,1016.29
2016-10-06T00:24:18.864Z,1016.28
2016-10-06T00:25:18.999Z,1016.24
2016-10-06T00:26:19.084Z,1016.25
2016-10-06T00:27:18.723Z,1016.24
2016-10-06T00:28:18.820Z,1016.21
2016-10-06T00:29:18.817Z,1016.15
2016-10-06T00:30:18.854Z,1016.17
2016-10-06T00:31:19.270Z,1016.15
2016-10-06T00:32:19.070Z,1016.08
2016-10-06T00:33:18.868Z,1016.07
2016-10-06T00:34:19.046Z,1016.04
2016-10-06T00:35:19.164Z,1016.09
2016-10-06T00:36:18.878Z,1016.05
2016-10-06T00:37:19.434Z,1016.05
2016-10-06T00:38:19.000Z,1016.09
2016-10-06T00:39:19.013Z,1016.1
2016-10-06T00:40:19.046Z,1016.1
2016-10-06T00:41:19.190Z,1016.07
2016-10-06T00:42:19.001Z,1016.06
2016-10-06T00:43:19.340Z,1016.02
2016-10-06T00:44:19.009Z,1015.98
2016-10-06T00:45:19.296Z,1015.99
2016-10-06T00:46:19.298Z,1015.99
2016-10-06T00:47:19.325Z,1015.95
2016-10-06T00:48:19.316Z,1015.92
2016-10-06T00:49:18.960Z,1015.93
2016-10-06T00:50:19.448Z,1015.89
2016-10-06T00:51:19.099Z,1015.91
2016-10-06T00:52:19.173Z,1015.87
2016-10-06T00:53:19.242Z,1015.85
2016-10-06T00:54:19.347Z,1015.87
2016-10-06T00:55:19.351Z,1015.85
2016-10-06T00:56:19.801Z,1015.83
2016-10-06T00:57:19.357Z,1015.84
2016-10-06T00:58:19.511Z,1015.82
2016-10-06T00:59:19.184Z,1015.84
2016-10-06T01:00:19.456Z,1015.83
2016-10-06T01:01:19.903Z,1015.79
2016-10-06T01:02:19.254Z,1015.76
2016-10-06T01:03:19.608Z,1015.75
2016-10-06T01:04:19.739Z,1015.77
2016-10-06T01:05:19.200Z,1015.79
2016-10-06T01:06:19.375Z,1015.76
2016-10-06T01:07:19.502Z,1015.74
2016-10-06T01:08:19.460Z,1015.74
2016-10-06T01:09:19.642Z,1015.73
2016-10-06T01:10:19.608Z,1015.73
2016-10-06T01:11:19.267Z,1015.74
2016-10-06T01:12:19.493Z,1015.71
2016-10-06T01:13:19.395Z,1015.71
2016-10-06T01:14:19.664Z,1015.7
2016-10-06T01:15:20.021Z,1015.69
2016-10-06T01:16:19.685Z,1015.74
2016-10-06T01:17:19.565Z,1015.72
2016-10-06T01:18:19.648Z,1015.69
2016-10-06T01:19:19.762Z,1015.72
2016-10-06T01:20:19.689Z,1015.66
2016-10-06T01:21:19.585Z,1015.63
2016-10-06T01:22:19.643Z,1015.62
2016-10-06T01:23:19.693Z,1015.59
2016-10-06T01:24:19.648Z,1015.56
2016-10-06T01:25:19.628Z,1015.53
2016-10-06T01:26:19.563Z,1015.51
2016-10-06T01:27:19.539Z,1015.5
2016-10-06T01:28:19.919Z,1015.48
2016-10-06T01:29:19.609Z,1015.45
2016-10-06T01:30:19.889Z,1015.45
2016-10-06T01:31:19.592Z,1015.43
2016-10-06T01:32:19.801Z,1015.46
2016-10-06T01:33:19.926Z,1015.49
2016-10-06T01:34:20.060Z,1015.5
2016-10-06T01:35:19.918Z,1015.49
2016-10-06T01:36:20.263Z,1015.55
2016-10-06T01:37:19.915Z,1015.52
2016-10-06T01:38:19.723Z,1015.55
2016-10-06T01:39:19.984Z,1015.53
2016-10-06T01:40:20.183Z,1015.48
2016-10-06T01:41:20.004Z,1015.41
2016-10-06T01:42:19.966Z,1015.41
2016-10-06T01:43:20.111Z,1015.35
2016-10-06T01:44:20.513Z,1015.33
2016-10-06T01:45:20.346Z,1015.31
2016-10-06T01:46:19.957Z,1015.29
2016-10-06T01:47:20.231Z,1015.31
2016-10-06T01:48:20.273Z,1015.29
2016-10-06T01:49:20.420Z,1015.3
2016-10-06T01:50:20.222Z,1015.32
2016-10-06T01:51:20.356Z,1015.35
2016-10-06T01:52:20.271Z,1015.35
2016-10-06T01:53:20.429Z,1015.35
2016-10-06T01:54:20.436Z,1015.33
2016-10-06T01:55:20.190Z,1015.33
2016-10-06T01:56:20.367Z,1015.32
2016-10-06T01:57:20.401Z,1015.26
2016-10-06T01:58:20.182Z,1015.26
2016-10-06T01:59:20.512Z,1015.22
2016-10-06T02:00:20.115Z,1015.2
2016-10-06T02:01:20.379Z,1015.17
2016-10-06T02:02:20.293Z,1015.16
2016-10-06T02:03:20.109Z,1015.2
2016-10-06T02:04:20.752Z,1015.18
2016-10-06T02:05:20.397Z,1015.2
2016-10-06T02:06:20.515Z,1015.26
2016-10-06T02:07:20.446Z,1015.28
2016-10-06T02:08:20.832Z,1015.3
2016-10-06T02:09:20.433Z,1015.28
2016-10-06T02:10:20.581Z,1015.3
2016-10-06T02:11:20.355Z,1015.27
2016-10-06T02:12:20.383Z,1015.24
2016-10-06T02:13:20.719Z,1015.23
2016-10-06T02:14:20.364Z,1015.18
2016-10-06T02:15:20.582Z,1015.23
2016-10-06T02:16:20.405Z,1015.22
2016-10-06T02:17:20.522Z,1015.21
2016-10-06T02:18:20.670Z,1015.23
2016-10-06T02:19:20.521Z,1015.18
2016-10-06T02:20:20.922Z,1015.15
2016-10-06T02:21:20.686Z,1015.14
2016-10-06T02:22:20.855Z,1015.06
2016-10-06T02:23:20.558Z,1015.05
2016-10-06T02:24:20.924Z,1015.04
2016-10-06T02:25:20.659Z,1015.05
2016-10-06T02:26:20.970Z,1015.04
2016-10-06T02:27:20.835Z,1015.05
2016-10-06T02:28:20.631Z,1015.04
2016-10-06T02:29:20.901Z,1015
2016-10-06T02:30:20.859Z,1014.98
2016-10-06T02:31:20.820Z,1014.99
2016-10-06T02:32:20.803Z,1014.94
2016-10-06T02:33:20.776Z,1014.92
2016-10-06T02:34:21.454Z,1014.92
2016-10-06T02:35:20.812Z,1014.86
2016-10-06T02:36:20.883Z,1014.83
2016-10-06T02:37:20.800Z,1014.82
2016-10-06T02:38:21.403Z,1014.81
2016-10-06T02:39:20.861Z,1014.85
2016-10-06T02:40:21.269Z,1014.81
2016-10-06T02:41:21.107Z,1014.76
2016-10-06T02:42:20.863Z,1014.75
2016-10-06T02:43:21.093Z,1014.77
2016-10-06T02:44:21.226Z,1014.74
2016-10-06T02:45:20.897Z,1014.76
2016-10-06T02:46:21.208Z,1014.73
2016-10-06T02:47:20.912Z,1014.69
2016-10-06T02:48:21.465Z,1014.73
2016-10-06T02:49:21.213Z,1014.74
2016-10-06T02:50:20.933Z,1014.75
2016-10-06T02:51:20.846Z,1014.78
2016-10-06T02:52:21.096Z,1014.75
2016-10-06T02:53:21.598Z,1014.7
2016-10-06T02:54:21.546Z,1014.7
2016-10-06T02:55:21.421Z,1014.62
2016-10-06T02:56:21.151Z,1014.58
2016-10-06T02:57:21.591Z,1014.58
2016-10-06T02:58:21.156Z,1014.58
2016-10-06T02:59:21.591Z,1014.54
2016-10-06T03:00:21.576Z,1014.54
2016-10-06T03:01:21.363Z,1014.49
2016-10-06T03:02:21.539Z,1014.48
2016-10-06T03:03:21.352Z,1014.43
2016-10-06T03:04:21.155Z,1014.44
2016-10-06T03:05:21.304Z,1014.42
2016-10-06T03:06:21.437Z,1014.44
2016-10-06T03:07:21.707Z,1014.41
2016-10-06T03:08:21.471Z,1014.4
2016-10-06T03:09:21.844Z,1014.37
2016-10-06T03:10:22.264Z,1014.37
2016-10-06T03:11:21.395Z,1014.36
2016-10-06T03:12:22.277Z,1014.33
2016-10-06T03:13:21.507Z,1014.3
2016-10-06T03:14:21.656Z,1014.33
2016-10-06T03:15:21.538Z,1014.25
2016-10-06T03:16:21.668Z,1014.17
2016-10-06T03:17:21.603Z,1014.14
2016-10-06T03:18:21.610Z,1014.16
2016-10-06T03:19:21.527Z,1014.16
2016-10-06T03:20:21.923Z,1014.17
2016-10-06T03:21:21.723Z,1014.16
2016-10-06T03:22:21.832Z,1014.12
2016-10-06T03:23:21.909Z,1014.11
2016-10-06T03:24:22.027Z,1014.15
2016-10-06T03:25:21.881Z,1014.14
2016-10-06T03:26:21.528Z,1014.16
2016-10-06T03:27:22.105Z,1014.2
2016-10-06T03:28:21.986Z,1014.2
2016-10-06T03:29:21.740Z,1014.23
2016-10-06T03:30:22.015Z,1014.23
2016-10-06T03:31:22.020Z,1014.22
2016-10-06T03:32:21.964Z,1014.23
2016-10-06T03:33:21.749Z,1014.26
2016-10-06T03:34:21.733Z,1014.28
2016-10-06T03:35:21.919Z,1014.29
2016-10-06T03:36:21.959Z,1014.3
2016-10-06T03:37:21.929Z,1014.28
2016-10-06T03:38:21.933Z,1014.3
2016-10-06T03:39:22.283Z,1014.3
2016-10-06T03:40:22.015Z,1014.3
2016-10-06T03:41:21.928Z,1014.29
2016-10-06T03:42:22.303Z,1014.3
2016-10-06T03:43:22.107Z,1014.31
2016-10-06T03:44:22.223Z,1014.26
2016-10-06T03:45:22.036Z,1014.28
2016-10-06T03:46:22.386Z,1014.28
2016-10-06T03:47:22.231Z,1014.24
2016-10-06T03:48:22.177Z,1014.21
2016-10-06T03:49:22.336Z,1014.17
2016-10-06T03:50:22.165Z,1014.16
2016-10-06T03:51:21.951Z,1014.14
2016-10-06T03:52:22.135Z,1014.14
2016-10-06T03:53:22.229Z,1014.12
2016-10-06T03:54:22.774Z,1014.17
2016-10-06T03:55:22.320Z,1014.12
2016-10-06T03:56:22.175Z,1014.14
2016-10-06T03:57:22.053Z,1014.17
2016-10-06T03:58:22.533Z,1014.1
2016-10-06T03:59:22.502Z,1014.15
2016-10-06T04:00:22.603Z,1014.13
2016-10-06T04:01:22.592Z,1014.11
2016-10-06T04:02:22.955Z,1014.08
2016-10-06T04:03:22.197Z,1014.08
2016-10-06T04:04:22.049Z,1014.03
2016-10-06T04:05:22.949Z,1014.01
2016-10-06T04:06:22.222Z,1014.01
2016-10-06T04:07:22.551Z,1013.99
2016-10-06T04:08:22.631Z,1013.94
2016-10-06T04:09:22.280Z,1013.95
2016-10-06T04:10:22.386Z,1013.91
2016-10-06T04:11:22.602Z,1013.93
2016-10-06T04:12:22.820Z,1013.91
2016-10-06T04:13:22.705Z,1013.94
2016-10-06T04:14:22.504Z,1013.93
2016-10-06T04:15:22.941Z,1013.92
2016-10-06T04:16:22.910Z,1013.91
2016-10-06T04:17:22.503Z,1013.9
2016-10-06T04:18:22.634Z,1013.9
2016-10-06T04:19:22.894Z,1013.89
2016-10-06T04:20:22.580Z,1013.91
2016-10-06T04:21:22.892Z,1013.88
2016-10-06T04:22:22.999Z,1013.88
2016-10-06T04:23:22.516Z,1013.87
2016-10-06T04:24:22.658Z,1013.85
2016-10-06T04:25:22.572Z,1013.82
2016-10-06T04:26:22.814Z,1013.73
2016-10-06T04:27:22.763Z,1013.72
2016-10-06T04:28:23.037Z,1013.66
2016-10-06T04:29:22.555Z,1013.64
2016-10-06T04:30:22.940Z,1013.66
2016-10-06T04:31:22.645Z,1013.61
2016-10-06T04:32:23.134Z,1013.62
2016-10-06T04:33:22.961Z,1013.59
2016-10-06T04:34:22.886Z,1013.6
2016-10-06T04:35:22.894Z,1013.57
2016-10-06T04:36:22.791Z,1013.55
2016-10-06T04:37:23.482Z,1013.56
2016-10-06T04:38:23.129Z,1013.51
2016-10-06T04:39:22.854Z,1013.47
2016-10-06T04:40:22.891Z,1013.5
2016-10-06T04:41:22.793Z,1013.39
2016-10-06T04:42:23.028Z,1013.41
2016-10-06T04:43:23.274Z,1013.36
2016-10-06T04:44:23.155Z,1013.35
2016-10-06T04:45:23.106Z,1013.34
2016-10-06T04:46:22.834Z,1013.32
2016-10-06T04:47:23.228Z,1013.28
2016-10-06T04:48:23.104Z,1013.27
2016-10-06T04:49:23.151Z,1013.26
2016-10-06T04:50:23.390Z,1013.26
2016-10-06T04:51:23.457Z,1013.22
2016-10-06T04:52:23.392Z,1013.25
2016-10-06T04:53:23.181Z,1013.27
2016-10-06T04:54:23.443Z,1013.21
2016-10-06T04:55:23.644Z,1013.22
2016-10-06T04:56:23.107Z,1013.23
2016-10-06T04:57:23.453Z,1013.23
2016-10-06T04:58:23.608Z,1013.22
2016-10-06T04:59:23.542Z,1013.15
2016-10-06T05:00:23.464Z,1013.17
2016-10-06T05:01:23.963Z,1013.2
2016-10-06T05:02:23.607Z,1013.17
2016-10-06T05:03:23.404Z,1013.19
2016-10-06T05:04:23.399Z,1013.19
2016-10-06T05:05:23.591Z,1013.16
2016-10-06T05:06:23.500Z,1013.2
2016-10-06T05:07:23.625Z,1013.17
2016-10-06T05:08:23.468Z,1013.17
2016-10-06T05:09:23.438Z,1013.16
2016-10-06T05:10:23.484Z,1013.18
2016-10-06T05:11:23.900Z,1013.16
2016-10-06T05:12:23.323Z,1013.15
2016-10-06T05:13:24.035Z,1013.12
2016-10-06T05:14:23.795Z,1013.1
2016-10-06T05:15:24.258Z,1013.11
2016-10-06T05:16:23.593Z,1013.08
2016-10-06T05:17:23.616Z,1013.04
2016-10-06T05:18:23.776Z,1013
2016-10-06T05:19:23.465Z,1013.01
2016-10-06T05:20:24.113Z,1012.97
2016-10-06T05:21:23.523Z,1012.98
2016-10-06T05:22:23.561Z,1012.97
2016-10-06T05:23:23.757Z,1012.89
2016-10-06T05:24:23.460Z,1012.86
2016-10-06T05:25:23.671Z,1012.87
2016-10-06T05:26:23.565Z,1012.86
2016-10-06T05:27:23.586Z,1012.84
2016-10-06T05:28:24.761Z,1012.84
2016-10-06T05:29:24.293Z,1012.9
2016-10-06T05:30:24.362Z,1012.92
2016-10-06T05:31:23.823Z,1012.93
2016-10-06T05:32:23.904Z,1012.94
2016-10-06T05:33:24.128Z,1012.94
2016-10-06T05:34:23.945Z,1012.96
2016-10-06T05:35:24.365Z,1012.94
2016-10-06T05:36:24.326Z,1012.95
2016-10-06T05:37:24.379Z,1012.95
2016-10-06T05:38:24.062Z,1012.93
2016-10-06T05:39:24.042Z,1012.91
2016-10-06T05:40:24.053Z,1012.95
2016-10-06T05:41:24.248Z,1012.87
2016-10-06T05:42:24.454Z,1012.91
2016-10-06T05:43:24.007Z,1012.88
2016-10-06T05:44:23.812Z,1012.89
2016-10-06T05:45:24.345Z,1012.9
2016-10-06T05:46:23.855Z,1012.87
2016-10-06T05:47:24.503Z,1012.9
2016-10-06T05:48:23.950Z,1012.87
2016-10-06T05:49:24.034Z,1012.88
2016-10-06T05:50:24.164Z,1012.86
2016-10-06T05:51:24.468Z,1012.92
2016-10-06T05:52:24.129Z,1012.93
2016-10-06T05:53:24.302Z,1012.96
2016-10-06T05:54:24.590Z,1012.92
2016-10-06T05:55:24.098Z,1012.91
2016-10-06T05:56:24.261Z,1012.93
2016-10-06T05:57:24.484Z,1012.91
2016-10-06T05:58:24.530Z,1012.88
2016-10-06T05:59:24.179Z,1012.88
2016-10-06T06:00:24.364Z,1012.87
2016-10-06T06:01:25.242Z,1012.81
2016-10-06T06:02:24.514Z,1012.87
2016-10-06T06:03:24.564Z,1012.84
2016-10-06T06:04:24.314Z,1012.83
2016-10-06T06:05:24.384Z,1012.79
2016-10-06T06:06:24.440Z,1012.83
2016-10-06T06:07:24.448Z,1012.79
2016-10-06T06:08:24.343Z,1012.83
2016-10-06T06:09:24.863Z,1012.82
2016-10-06T06:10:24.905Z,1012.85
2016-10-06T06:11:24.524Z,1012.89
2016-10-06T06:12:24.911Z,1012.81
2016-10-06T06:13:24.878Z,1012.79
2016-10-06T06:14:24.512Z,1012.81
2016-10-06T06:15:24.766Z,1012.8
2016-10-06T06:16:24.694Z,1012.87
2016-10-06T06:17:25.024Z,1012.84
2016-10-06T06:18:24.549Z,1012.81
2016-10-06T06:19:24.509Z,1012.84
2016-10-06T06:20:24.447Z,1012.83
2016-10-06T06:21:24.635Z,1012.78
2016-10-06T06:22:24.614Z,1012.85
2016-10-06T06:23:25.392Z,1012.86
2016-10-06T06:24:24.703Z,1012.84
2016-10-06T06:25:24.749Z,1012.77
2016-10-06T06:26:24.812Z,1012.77
2016-10-06T06:27:24.688Z,1012.87
2016-10-06T06:28:25.181Z,1012.78
2016-10-06T06:29:24.982Z,1012.83
2016-10-06T06:30:24.581Z,1012.77
2016-10-06T06:31:24.884Z,1012.78
2016-10-06T06:32:25.034Z,1012.77
2016-10-06T06:33:24.672Z,1012.8
2016-10-06T06:34:24.837Z,1012.79
2016-10-06T06:35:25.140Z,1012.87
2016-10-06T06:36:24.868Z,1012.94
2016-10-06T06:37:24.807Z,1012.89
2016-10-06T06:38:25.252Z,1012.94
2016-10-06T06:39:25.217Z,1012.88
2016-10-06T06:40:26.089Z,1012.85
2016-10-06T06:41:25.016Z,1012.83
2016-10-06T06:42:25.170Z,1012.87
2016-10-06T06:43:25.452Z,1012.86
2016-10-06T06:44:24.930Z,1012.9
2016-10-06T06:45:25.277Z,1012.81
2016-10-06T06:46:25.112Z,1012.87
2016-10-06T06:47:25.147Z,1012.87
2016-10-06T06:48:25.311Z,1012.85
2016-10-06T06:49:25.586Z,1012.82
2016-10-06T06:50:25.315Z,1012.97
2016-10-06T06:51:25.708Z,1012.93
2016-10-06T06:52:25.893Z,1012.87
2016-10-06T06:53:25.672Z,1012.93
2016-10-06T06:54:25.387Z,1012.91
2016-10-06T06:55:25.541Z,1012.91
2016-10-06T06:56:25.436Z,1012.94
2016-10-06T06:57:25.703Z,1012.93
2016-10-06T06:58:25.406Z,1012.89
2016-10-06T06:59:26.160Z,1012.92
2016-10-06T07:00:25.595Z,1012.95
2016-10-06T07:01:25.399Z,1012.9
2016-10-06T07:02:25.069Z,1012.98
2016-10-06T07:03:25.058Z,1012.92
2016-10-06T07:04:25.772Z,1012.97
2016-10-06T07:05:25.315Z,1012.95
2016-10-06T07:06:25.120Z,1012.96
2016-10-06T07:07:25.607Z,1012.98
2016-10-06T07:08:25.533Z,1013.03
2016-10-06T07:09:25.424Z,1013.06
2016-10-06T07:10:25.613Z,1012.98
2016-10-06T07:11:25.454Z,1012.97
2016-10-06T07:12:26.032Z,1012.97
2016-10-06T07:13:25.809Z,1012.99
2016-10-06T07:14:25.351Z,1012.98
2016-10-06T07:15:25.718Z,1012.97
2016-10-06T07:16:25.367Z,1012.99
2016-10-06T07:17:25.753Z,1013.02
2016-10-06T07:18:25.741Z,1013
2016-10-06T07:19:25.784Z,1012.96
2016-10-06T07:20:25.658Z,1012.93
2016-10-06T07:21:25.501Z,1012.91
2016-10-06T07:22:25.498Z,1012.89
2016-10-06T07:23:25.863Z,1012.98
2016-10-06T07:24:25.913Z,1012.97
2016-10-06T07:25:25.620Z,1012.94
2016-10-06T07:26:25.493Z,1012.95
2016-10-06T07:27:25.478Z,1012.87
2016-10-06T07:28:25.802Z,1012.93
2016-10-06T07:29:25.888Z,1012.9
2016-10-06T07:30:26.243Z,1012.94
2016-10-06T07:31:25.806Z,1012.93
2016-10-06T07:32:26.963Z,1012.9
2016-10-06T07:33:26.328Z,1012.85
2016-10-06T07:34:26.033Z,1012.85
2016-10-06T07:35:25.966Z,1012.87
2016-10-06T07:36:26.039Z,1012.85
2016-10-06T07:37:26.065Z,1012.84
2016-10-06T07:38:25.765Z,1012.83
2016-10-06T07:39:25.925Z,1012.84
2016-10-06T07:40:26.096Z,1012.85
2016-10-06T07:41:25.878Z,1012.83
2016-10-06T07:42:25.960Z,1012.85
2016-10-06T07:43:25.938Z,1012.9
2016-10-06T07:44:26.342Z,1012.86
2016-10-06T07:45:25.907Z,1012.83
2016-10-06T07:46:26.225Z,1012.81
2016-10-06T07:47:26.212Z,1012.83
2016-10-06T07:48:25.951Z,1012.83
2016-10-06T07:49:26.141Z,1012.85
2016-10-06T07:50:26.332Z,1012.86
2016-10-06T07:51:26.239Z,1012.84
2016-10-06T07:52:26.248Z,1012.88
2016-10-06T07:53:26.177Z,1012.86
2016-10-06T07:54:26.114Z,1012.83
2016-10-06T07:55:26.085Z,1012.86
2016-10-06T07:56:26.898Z,1012.87
2016-10-06T07:57:26.254Z,1012.83
2016-10-06T07:58:26.593Z,1012.85
2016-10-06T07:59:26.646Z,1012.88
2016-10-06T08:00:26.746Z,1012.87
2016-10-06T08:01:26.682Z,1012.86
2016-10-06T08:02:26.457Z,1012.89
2016-10-06T08:03:27.028Z,1012.88
2016-10-06T08:04:26.567Z,1012.87
2016-10-06T08:05:26.468Z,1012.88
2016-10-06T08:06:26.367Z,1012.85
2016-10-06T08:07:26.463Z,1012.86
2016-10-06T08:08:26.731Z,1012.89
2016-10-06T08:09:26.665Z,1012.88
2016-10-06T08:10:26.811Z,1012.87
2016-10-06T08:11:26.832Z,1012.84
2016-10-06T08:12:26.399Z,1012.83
2016-10-06T08:13:26.722Z,1012.81
2016-10-06T08:14:26.466Z,1012.81
2016-10-06T08:15:26.646Z,1012.82
2016-10-06T08:16:26.898Z,1012.82
2016-10-06T08:17:26.795Z,1012.8
2016-10-06T08:18:26.742Z,1012.82
2016-10-06T08:19:26.526Z,1012.82
2016-10-06T08:20:27.145Z,1012.83
2016-10-06T08:21:26.742Z,1012.87
2016-10-06T08:22:26.976Z,1012.8
2016-10-06T08:23:26.632Z,1012.82
2016-10-06T08:24:26.720Z,1012.85
2016-10-06T08:25:26.779Z,1012.83
2016-10-06T08:26:27.092Z,1012.85
2016-10-06T08:27:27.069Z,1012.84
2016-10-06T08:28:26.751Z,1012.86
2016-10-06T08:29:26.867Z,1012.87
2016-10-06T08:30:26.730Z,1012.86
2016-10-06T08:31:26.755Z,1012.87
2016-10-06T08:32:27.193Z,1012.86
2016-10-06T08:33:26.766Z,1012.86
2016-10-06T08:34:26.929Z,1012.82
2016-10-06T08:35:26.770Z,1012.83
2016-10-06T08:36:26.756Z,1012.9
2016-10-06T08:37:26.963Z,1012.83
2016-10-06T08:38:27.312Z,1012.81
2016-10-06T08:39:27.284Z,1012.88
2016-10-06T08:40:27.898Z,1012.85
2016-10-06T08:41:27.121Z,1012.88
2016-10-06T08:42:27.480Z,1012.88
2016-10-06T08:43:27.433Z,1012.83
2016-10-06T08:44:27.186Z,1012.86
2016-10-06T08:45:27.035Z,1012.87
2016-10-06T08:46:27.169Z,1012.92
2016-10-06T08:47:27.457Z,1012.9
2016-10-06T08:48:27.051Z,1012.87
2016-10-06T08:49:28.024Z,1012.91
2016-10-06T08:50:27.043Z,1012.9
2016-10-06T08:51:27.586Z,1012.85
2016-10-06T08:52:27.348Z,1012.84
2016-10-06T08:53:27.161Z,1012.86
2016-10-06T08:54:27.268Z,1012.96
2016-10-06T08:55:27.268Z,1012.96
2016-10-06T08:56:27.094Z,1012.9
2016-10-06T08:57:27.305Z,1012.85
2016-10-06T08:58:27.290Z,1012.87
2016-10-06T08:59:27.258Z,1012.9
2016-10-06T09:00:27.386Z,1012.94
2016-10-06T09:01:27.511Z,1012.95
2016-10-06T09:02:28.037Z,1012.94
2016-10-06T09:03:27.740Z,1012.98
2016-10-06T09:04:27.646Z,1012.92
2016-10-06T09:05:27.384Z,1012.91
2016-10-06T09:06:27.477Z,1012.87
2016-10-06T09:07:27.433Z,1012.86
2016-10-06T09:08:27.369Z,1012.91
2016-10-06T09:09:27.308Z,1012.91
2016-10-06T09:10:27.780Z,1012.97
2016-10-06T09:11:27.863Z,1012.87
2016-10-06T09:12:27.363Z,1012.89
2016-10-06T09:13:27.662Z,1012.92
2016-10-06T09:14:27.475Z,1012.91
2016-10-06T09:15:27.545Z,1012.93
2016-10-06T09:16:27.568Z,1012.9
2016-10-06T09:17:27.875Z,1012.89
2016-10-06T09:18:27.717Z,1012.84
2016-10-06T09:19:27.809Z,1012.81
2016-10-06T09:20:27.628Z,1012.83
2016-10-06T09:21:27.943Z,1012.95
2016-10-06T09:22:28.061Z,1012.86
2016-10-06T09:23:27.690Z,1012.83
2016-10-06T09:24:28.231Z,1012.87
2016-10-06T09:25:27.823Z,1012.82
2016-10-06T09:26:28.033Z,1012.79
2016-10-06T09:27:28.000Z,1012.78
2016-10-06T09:28:27.863Z,1012.79
2016-10-06T09:29:27.753Z,1012.8
2016-10-06T09:30:27.627Z,1012.8
2016-10-06T09:31:28.099Z,1012.83
2016-10-06T09:32:28.068Z,1012.8
2016-10-06T09:33:28.027Z,1012.76
2016-10-06T09:34:27.960Z,1012.73
2016-10-06T09:35:27.967Z,1012.74
2016-10-06T09:36:28.059Z,1012.75
2016-10-06T09:37:27.904Z,1012.76
2016-10-06T09:38:27.989Z,1012.77
2016-10-06T09:39:27.998Z,1012.72
2016-10-06T09:40:28.300Z,1012.76
2016-10-06T09:41:27.877Z,1012.75
2016-10-06T09:42:28.368Z,1012.73
2016-10-06T09:43:28.441Z,1012.78
2016-10-06T09:44:28.059Z,1012.74
2016-10-06T09:45:28.091Z,1012.73
2016-10-06T09:46:28.053Z,1012.76
2016-10-06T09:47:28.273Z,1012.75
2016-10-06T09:48:28.126Z,1012.74
2016-10-06T09:49:28.389Z,1012.71
2016-10-06T09:50:28.492Z,1012.68
2016-10-06T09:51:28.150Z,1012.68
2016-10-06T09:52:28.572Z,1012.72
2016-10-06T09:53:28.538Z,1012.67
2016-10-06T09:54:28.727Z,1012.65
2016-10-06T09:55:28.389Z,1012.66
2016-10-06T09:56:28.528Z,1012.63
2016-10-06T09:57:28.386Z,1012.68
2016-10-06T09:58:28.829Z,1012.65
2016-10-06T09:59:28.298Z,1012.64
2016-10-06T10:00:28.407Z,1012.62
2016-10-06T10:01:28.835Z,1012.64
2016-10-06T10:02:28.593Z,1012.58
2016-10-06T10:03:28.660Z,1012.62
2016-10-06T10:04:28.261Z,1012.64
2016-10-06T10:05:28.647Z,1012.66
2016-10-06T10:06:28.448Z,1012.64
2016-10-06T10:07:28.603Z,1012.65
2016-10-06T10:08:28.665Z,1012.67
2016-10-06T10:09:28.571Z,1012.68
2016-10-06T10:10:28.397Z,1012.65
2016-10-06T10:11:28.911Z,1012.75
2016-10-06T10:12:29.378Z,1012.72
2016-10-06T10:13:28.643Z,1012.72
2016-10-06T10:14:28.693Z,1012.77
2016-10-06T10:15:28.527Z,1012.71
2016-10-06T10:16:28.732Z,1012.71
2016-10-06T10:17:29.105Z,1012.68
2016-10-06T10:18:28.664Z,1012.73
2016-10-06T10:19:28.639Z,1012.71
2016-10-06T10:20:28.678Z,1012.75
2016-10-06T10:21:28.678Z,1012.74
2016-10-06T10:22:28.632Z,1012.7
2016-10-06T10:23:29.132Z,1012.75
2016-10-06T10:24:28.555Z,1012.8
2016-10-06T10:25:28.568Z,1012.8
2016-10-06T10:26:28.584Z,1012.71
2016-10-06T10:27:28.611Z,1012.7
2016-10-06T10:28:29.205Z,1012.6
2016-10-06T10:29:28.736Z,1012.63
2016-10-06T10:30:29.096Z,1012.64
2016-10-06T10:31:29.179Z,1012.6
2016-10-06T10:32:28.853Z,1012.6
2016-10-06T10:33:29.355Z,1012.59
2016-10-06T10:34:29.026Z,1012.61
2016-10-06T10:35:28.946Z,1012.6
2016-10-06T10:36:29.065Z,1012.71
2016-10-06T10:37:29.110Z,1012.64
2016-10-06T10:38:29.181Z,1012.63
2016-10-06T10:39:29.188Z,1012.66
2016-10-06T10:40:29.244Z,1012.63
2016-10-06T10:41:28.972Z,1012.59
2016-10-06T10:42:29.054Z,1012.54
2016-10-06T10:43:29.180Z,1012.57
2016-10-06T10:44:29.068Z,1012.55
2016-10-06T10:45:29.262Z,1012.58
2016-10-06T10:46:29.279Z,1012.58
2016-10-06T10:47:29.198Z,1012.48
2016-10-06T10:48:29.322Z,1012.56
2016-10-06T10:49:29.199Z,1012.6
2016-10-06T10:50:29.256Z,1012.55
2016-10-06T10:51:29.449Z,1012.58
2016-10-06T10:52:29.286Z,1012.56
2016-10-06T10:53:29.785Z,1012.58
2016-10-06T10:54:29.389Z,1012.56
2016-10-06T10:55:29.288Z,1012.51
2016-10-06T10:56:29.480Z,1012.45
2016-10-06T10:57:29.300Z,1012.44
2016-10-06T10:58:29.595Z,1012.43
2016-10-06T10:59:29.430Z,1012.47
2016-10-06T11:00:29.369Z,1012.46
2016-10-06T11:01:29.567Z,1012.43
2016-10-06T11:02:29.445Z,1012.45
2016-10-06T11:03:29.568Z,1012.42
2016-10-06T11:04:30.481Z,1012.37
2016-10-06T11:05:29.548Z,1012.33
2016-10-06T11:06:29.865Z,1012.32
2016-10-06T11:07:29.563Z,1012.3
2016-10-06T11:08:29.839Z,1012.27
2016-10-06T11:09:29.586Z,1012.26
2016-10-06T11:10:29.613Z,1012.24
2016-10-06T11:11:29.718Z,1012.24
2016-10-06T11:12:29.651Z,1012.2
2016-10-06T11:13:29.841Z,1012.21
2016-10-06T11:14:29.999Z,1012.12
2016-10-06T11:15:29.677Z,1012.15
2016-10-06T11:16:29.686Z,1012.14
2016-10-06T11:17:29.635Z,1012.15
2016-10-06T11:18:30.173Z,1012.2
2016-10-06T11:19:29.755Z,1012.17
2016-10-06T11:20:30.114Z,1012.13
2016-10-06T11:21:30.113Z,1012.15
2016-10-06T11:22:29.728Z,1012.19
2016-10-06T11:23:29.759Z,1012.14
2016-10-06T11:24:29.962Z,1012.12
2016-10-06T11:25:29.960Z,1012.12
2016-10-06T11:26:30.177Z,1012.15
2016-10-06T11:27:29.941Z,1012.13
2016-10-06T11:28:29.964Z,1012.12
2016-10-06T11:29:30.216Z,1012.08
2016-10-06T11:30:30.134Z,1012.13
2016-10-06T11:31:30.096Z,1012.1
2016-10-06T11:32:30.128Z,1012.12
2016-10-06T11:33:30.067Z,1012.04
2016-10-06T11:34:30.101Z,1012.09
2016-10-06T11:35:30.857Z,1012.06
2016-10-06T11:36:30.188Z,1012.1
2016-10-06T11:37:30.433Z,1012.08
2016-10-06T11:38:30.845Z,1012.08
2016-10-06T11:39:30.546Z,1012.09
2016-10-06T11:40:30.174Z,1012.08
2016-10-06T11:41:30.577Z,1012.06
2016-10-06T11:42:30.243Z,1012.04
2016-10-06T11:43:30.767Z,1012.05
2016-10-06T11:44:30.464Z,1012.05
2016-10-06T11:45:30.494Z,1012.06
2016-10-06T11:46:30.239Z,1012.03
2016-10-06T11:47:30.484Z,1011.99
2016-10-06T11:48:30.480Z,1012.04
2016-10-06T11:49:30.722Z,1012
2016-10-06T11:50:30.314Z,1011.92
2016-10-06T11:51:30.389Z,1011.98
2016-10-06T11:52:30.499Z,1011.96
2016-10-06T11:53:30.388Z,1011.94
2016-10-06T11:54:30.272Z,1011.94
2016-10-06T11:55:30.646Z,1011.97
2016-10-06T11:56:30.739Z,1011.94
2016-10-06T11:57:30.568Z,1011.95
2016-10-06T11:58:30.814Z,1011.91
2016-10-06T11:59:30.383Z,1011.95
2016-10-06T12:00:30.540Z,1011.93
2016-10-06T12:01:31.095Z,1011.91
2016-10-06T12:02:30.565Z,1011.9
2016-10-06T12:03:30.703Z,1011.89
2016-10-06T12:04:31.133Z,1011.9
2016-10-06T12:05:31.552Z,1011.89
2016-10-06T12:06:30.744Z,1011.89
2016-10-06T12:07:30.953Z,1011.87
2016-10-06T12:08:30.818Z,1011.85